Owensville, IN

07:09 CDT le 30 juillet 2015 (GMT -0500)
KINPOSEY2 | | Change Station
CLOSE
Current Station
Stations météorologiques personnelles
Location: Poseyville, IN
Altitude: 443 ft
Stations météo à proximité
Avis météorologiques actifs: Flood Warning

Alt. 443 ft 38.18 °N, 87.79 °W | Updated 2 seconds ago

Ciel dégagé
Ciel dégagé
70.3 ° F
Paraît 76 ° F
N
0.0
Vent Variable Vent de NO
Gusts 0.0 mph

Aujourd'hui
Haut(e) -- | Bas -- ° F
--% Risque de précip.
Hier
Haut(e) -- | Bas -- ° F
Precip. -- pouce
5:51 AM 8:02 PM
Lune gibbeuse croissante, 99% visible
Pression 30.10 pouce
Visibilité 10.0 Miles terrestres
Nuages Ciel dégagé
indice de chaleur 76 ° F
Point de rosée 36 ° F
Humidité 28%
Précipitations 0.00 pouce
Profondeur de la couche neigeuse Non disponible.
UV 1 sur 12
Pollen 5.40 sur 12
Qualité de l'air Non disponible.
Flu Activity Non disponible.
METAR KEVV 301154Z 34004KT 10SM CLR 22/16 A3011 RMK AO2 SLP192 70013 T02170156 10244 20206 53011

More Conditions Fewer Conditions

Pression 30.10 pouce
Visibilité 10.0 Miles terrestres
Nuages Ciel dégagé
indice de chaleur 76 ° F
Point de rosée 36 ° F
Humidité 28%
Précipitations 0.00 pouce
Profondeur de la couche neigeuse Non disponible.
UV 1 sur 12
Pollen 5.40 sur 12
Qualité de l'air Non disponible.
Flu Activity Non disponible.
METAR KEVV 301154Z 34004KT 10SM CLR 22/16 A3011 RMK AO2 SLP192 70013 T02170156 10244 20206 53011

More Conditions Fewer Conditions

10-Day Weather Forecast

×

Almanac

Astronomie

Jul. 30, 2015 Lever Coucher
Temps réel
Crépuscule civil
Crépuscule nautique
Crépuscule astronomique
Lune
Durée de lumière visible
Longueur du jour
Tomorrow will be .
, % of the Moon is Illuminated

Extrêmes aujourd'hui

State Highs State Lows

Community

WunderPhotos

Upload Photos

1,842,339 Photos téléchargées !

WunderBlogs® & News

Nearby

Qualité de l'air

  Qualité de l'air Indice de la qualité de l'air Polluant
Not available.

Épaisseur de neige

Station Depth Altitude

Activité sismique

Ville Distance Mag. Time & Date
Minimum magnitude displayed is 2.5.

Températures des eaux côtières

Lieu Température

Stations

Stations météo à proximité

Emplacement de la station Température Refroidissement éolien Point de rosée Humidité Vent Precip. Alt. Mise à jour Type
                   
Flood Warning
Statement as of 22:03 CDT le 29 juillet 2015

The Flood Warning continues for the Wabash River at New Harmony
* until Friday morning.
* At 9 PM Wednesday the stage was 15.8 feet.
* Flood stage is 15.0 feet.
* Minor flooding is occurring and minor flooding is forecast.
* Forecast... the river will rise to near 16.1 feet overnight.
* Impact... at 15.0 feet... the river overflows low ground on the
Illinois side.


Lat... Lon 3816 8799 3789 8810 3780 8809 3781 8801
      3797 8799 3815 8790